createdAt,value
2022-09-21T00:01:48.151Z,1.90
2022-09-21T00:04:36.775Z,2.00
2022-09-21T00:07:24.176Z,1.97
2022-09-21T00:20:46.456Z,1.60
2022-09-21T00:23:35.643Z,1.80
2022-09-21T00:26:25.097Z,1.87
2022-09-21T00:29:13.943Z,1.57
2022-09-21T00:32:01.132Z,1.60
2022-09-21T00:34:48.532Z,1.67
2022-09-21T00:37:37.261Z,1.70
2022-09-21T00:40:24.598Z,1.70
2022-09-21T00:43:13.834Z,1.77
2022-09-21T00:46:04.083Z,1.60
2022-09-21T00:48:51.086Z,1.70
2022-09-21T00:51:38.942Z,1.50
2022-09-21T00:54:30.887Z,1.57
2022-09-21T00:57:20.760Z,1.50
2022-09-21T01:00:11.106Z,1.30
2022-09-21T01:03:01.376Z,1.73
2022-09-21T01:05:48.999Z,1.30
2022-09-21T01:08:37.728Z,1.70
2022-09-21T01:11:34.385Z,1.33
2022-09-21T01:14:37.793Z,1.53
2022-09-21T01:17:34.826Z,1.57
2022-09-21T01:20:55.666Z,2.13
2022-09-21T01:24:17.614Z,1.97
2022-09-21T01:27:37.682Z,2.17
2022-09-21T01:30:26.832Z,2.03
2022-09-21T01:33:18.838Z,1.80
2022-09-21T01:36:10.552Z,2.07
2022-09-21T01:39:02.707Z,2.00
2022-09-21T01:41:53.219Z,1.97
2022-09-21T01:44:43.198Z,1.77
2022-09-21T01:47:32.557Z,1.90
2022-09-21T01:50:21.399Z,1.90
2022-09-21T01:53:12.533Z,1.83
2022-09-21T01:56:02.189Z,1.87
2022-09-21T01:58:58.532Z,1.50
2022-09-21T02:01:51.114Z,1.80
2022-09-21T02:04:39.930Z,1.70
2022-09-21T02:07:27.901Z,1.60
2022-09-21T02:11:06.163Z,1.67
2022-09-21T02:13:56.053Z,1.60
2022-09-21T02:16:49.881Z,1.73
2022-09-21T02:19:46.142Z,1.53
2022-09-21T02:22:40.800Z,1.73
2022-09-21T02:25:35.751Z,1.90
2022-09-21T02:33:42.849Z,1.90
2022-09-21T02:41:45.634Z,1.30
2022-09-21T02:44:36.357Z,1.70
2022-09-21T02:47:28.426Z,1.50
2022-09-21T02:50:20.162Z,1.57
2022-09-21T02:53:10.046Z,1.63
2022-09-21T02:56:02.938Z,1.53
2022-09-21T02:58:55.638Z,1.50
2022-09-21T03:01:43.482Z,1.70
2022-09-21T03:04:30.665Z,3.00
2022-09-21T03:07:18.719Z,2.10
2022-09-21T03:10:08.203Z,2.00
2022-09-21T03:12:58.757Z,1.87
2022-09-21T03:15:47.866Z,2.10
2022-09-21T03:18:35.388Z,3.20
2022-09-21T03:21:23.013Z,3.53
2022-09-21T03:24:10.131Z,4.40
2022-09-21T03:26:57.625Z,4.73
2022-09-21T03:29:44.762Z,3.37
2022-09-21T03:32:33.016Z,2.20
2022-09-21T03:35:21.600Z,3.23
2022-09-21T03:38:08.826Z,2.77
2022-09-21T03:40:57.818Z,4.57
2022-09-21T03:43:45.031Z,4.20
2022-09-21T03:46:35.183Z,2.80
2022-09-21T03:49:23.990Z,2.00
2022-09-21T03:52:11.341Z,1.90
2022-09-21T03:54:58.581Z,1.90
2022-09-21T03:57:45.685Z,1.80
2022-09-21T04:00:33.280Z,2.20
2022-09-21T04:03:20.678Z,1.90
2022-09-21T04:06:11.997Z,2.30
2022-09-21T04:09:00.275Z,1.97
2022-09-21T04:16:58.591Z,2.00
2022-09-21T04:19:46.003Z,2.63
2022-09-21T04:22:36.337Z,2.40
2022-09-21T04:25:25.518Z,1.80
2022-09-21T04:28:13.029Z,2.37
2022-09-21T04:31:00.460Z,2.20
2022-09-21T04:33:49.671Z,2.10
2022-09-21T04:36:37.059Z,2.73
2022-09-21T04:39:25.815Z,2.60
2022-09-21T04:42:20.519Z,2.00
2022-09-21T04:45:08.881Z,2.00
2022-09-21T04:47:56.610Z,1.87
2022-09-21T04:50:43.749Z,2.10
2022-09-21T04:53:30.697Z,1.80
2022-09-21T04:56:19.532Z,2.03
2022-09-21T04:59:06.968Z,2.30
2022-09-21T05:01:54.001Z,2.33
2022-09-21T05:04:41.409Z,2.53
2022-09-21T05:07:28.765Z,2.40
2022-09-21T05:10:15.056Z,2.60
2022-09-21T05:13:03.526Z,2.70
2022-09-21T05:15:50.705Z,2.40
2022-09-21T05:18:38.217Z,3.00
2022-09-21T05:21:25.173Z,2.90
2022-09-21T05:24:12.447Z,3.37
2022-09-21T05:26:59.862Z,3.10
2022-09-21T05:29:49.101Z,4.30
2022-09-21T05:32:46.333Z,3.60
2022-09-21T05:35:39.461Z,4.43
2022-09-21T05:38:26.799Z,5.10
2022-09-21T05:41:14.871Z,4.00
2022-09-21T05:44:02.481Z,4.20
2022-09-21T05:46:56.466Z,4.97
2022-09-21T05:49:55.446Z,7.47
2022-09-21T05:52:50.326Z,5.70
2022-09-21T05:55:51.589Z,4.13
2022-09-21T05:58:47.853Z,3.77
2022-09-21T06:01:47.350Z,3.70
2022-09-21T06:04:36.702Z,3.63
2022-09-21T06:07:24.149Z,3.77
2022-09-21T06:15:02.531Z,3.00
2022-09-21T06:17:49.973Z,4.03
2022-09-21T06:20:38.692Z,3.93
2022-09-21T06:23:25.435Z,3.33
2022-09-21T06:26:12.848Z,4.03
2022-09-21T06:29:00.298Z,3.80
2022-09-21T06:31:47.769Z,3.37
2022-09-21T06:34:35.120Z,3.90
2022-09-21T06:37:23.692Z,3.10
2022-09-21T06:41:01.225Z,3.60
2022-09-21T06:43:48.135Z,3.90
2022-09-21T06:46:35.445Z,3.87
2022-09-21T06:49:22.785Z,3.80
2022-09-21T06:52:09.882Z,2.90
2022-09-21T06:54:58.596Z,3.23
2022-09-21T06:58:12.557Z,3.27
2022-09-21T07:00:59.852Z,3.00
2022-09-21T07:03:50.825Z,3.70
2022-09-21T07:06:38.002Z,3.53
2022-09-21T07:12:34.521Z,3.40
2022-09-21T07:15:22.012Z,3.77
2022-09-21T07:18:13.652Z,3.50
2022-09-21T07:21:03.733Z,3.30
2022-09-21T07:23:50.775Z,3.50
2022-09-21T07:26:38.225Z,3.60
2022-09-21T07:29:26.898Z,3.83
2022-09-21T07:32:14.686Z,3.57
2022-09-21T07:35:02.426Z,3.30
2022-09-21T07:37:49.403Z,3.37
2022-09-21T07:40:37.098Z,3.67
2022-09-21T07:43:24.626Z,3.70
2022-09-21T07:46:15.472Z,3.33
2022-09-21T07:49:04.365Z,3.20
2022-09-21T07:51:51.533Z,3.53
2022-09-21T07:54:38.663Z,3.03
2022-09-21T07:57:43.291Z,3.50
2022-09-21T08:00:32.702Z,3.85
2022-09-21T08:03:21.122Z,3.33
2022-09-21T08:06:09.219Z,3.15
2022-09-21T08:08:58.007Z,3.10
2022-09-21T08:11:46.671Z,3.10
2022-09-21T08:14:33.880Z,3.65
2022-09-21T08:17:21.148Z,3.42
2022-09-21T08:20:10.806Z,3.13
2022-09-21T08:22:58.267Z,3.22
2022-09-21T08:25:45.504Z,3.00
2022-09-21T08:28:33.822Z,3.10
2022-09-21T08:31:24.072Z,2.85
2022-09-21T08:34:11.302Z,3.20
2022-09-21T08:36:59.712Z,3.05
2022-09-21T08:39:47.150Z,2.92
2022-09-21T08:42:41.313Z,2.72
2022-09-21T08:45:35.069Z,2.35
2022-09-21T08:48:30.013Z,2.92
2022-09-21T08:51:25.077Z,2.45
2022-09-21T08:54:20.343Z,2.83
2022-09-21T08:57:12.839Z,3.35
2022-09-21T09:00:01.492Z,3.40
2022-09-21T09:03:11.167Z,3.00
2022-09-21T09:06:02.733Z,2.72
2022-09-21T09:09:13.592Z,2.90
2022-09-21T09:12:18.454Z,3.15
2022-09-21T09:15:31.211Z,2.85
2022-09-21T09:18:28.846Z,2.45
2022-09-21T09:21:29.185Z,2.50
2022-09-21T09:24:25.789Z,2.50
2022-09-21T09:27:21.571Z,2.47
2022-09-21T09:30:17.439Z,3.00
2022-09-21T09:33:09.341Z,2.50
2022-09-21T09:36:02.667Z,2.45
2022-09-21T09:38:57.337Z,2.70
2022-09-21T09:42:01.627Z,2.03
2022-09-21T09:45:18.249Z,2.33
2022-09-21T09:48:23.709Z,2.15
2022-09-21T09:51:12.925Z,1.90
2022-09-21T09:54:01.427Z,2.08
2022-09-21T09:56:48.929Z,1.95
2022-09-21T09:59:40.852Z,2.10
2022-09-21T10:02:30.854Z,2.50
2022-09-21T10:05:25.018Z,2.15
2022-09-21T10:08:28.412Z,1.60
2022-09-21T10:11:17.178Z,1.92
2022-09-21T10:14:10.483Z,1.77
2022-09-21T10:16:59.663Z,1.67
2022-09-21T10:19:48.189Z,1.55
2022-09-21T10:22:35.586Z,1.45
2022-09-21T10:25:24.481Z,1.23
2022-09-21T10:28:13.251Z,1.40
2022-09-21T10:31:11.226Z,1.30
2022-09-21T10:34:14.222Z,1.15
2022-09-21T10:37:04.554Z,1.30
2022-09-21T10:39:51.758Z,1.40
2022-09-21T10:42:43.611Z,1.50
2022-09-21T10:45:32.565Z,0.90
2022-09-21T10:48:23.539Z,0.90
2022-09-21T10:51:27.227Z,0.95
2022-09-21T10:54:22.796Z,0.93
2022-09-21T10:57:15.719Z,0.60
2022-09-21T11:00:29.240Z,0.80
2022-09-21T11:03:48.630Z,1.00
2022-09-21T11:06:39.104Z,0.90
2022-09-21T11:09:33.080Z,2.97
2022-09-21T11:12:42.863Z,0.80
2022-09-21T11:15:45.765Z,0.90
2022-09-21T11:18:41.167Z,0.80
2022-09-21T11:21:42.737Z,1.05
2022-09-21T11:24:39.787Z,0.75
2022-09-21T11:27:32.076Z,0.85
2022-09-21T11:30:21.115Z,0.90
2022-09-21T11:33:24.148Z,0.85
2022-09-21T11:36:23.070Z,1.00
2022-09-21T11:39:22.518Z,0.90
2022-09-21T11:42:21.170Z,0.88
2022-09-21T11:45:28.614Z,1.30
2022-09-21T11:48:24.970Z,1.83
2022-09-21T11:51:37.567Z,1.00
2022-09-21T11:55:13.414Z,1.00
2022-09-21T11:58:10.359Z,0.90
2022-09-21T12:01:10.026Z,1.27
2022-09-21T12:04:19.560Z,1.05
2022-09-21T12:07:20.389Z,1.10
2022-09-21T12:10:35.562Z,1.10
2022-09-21T12:13:33.893Z,0.80
2022-09-21T12:16:28.961Z,0.90
2022-09-21T12:19:25.071Z,0.80
2022-09-21T12:22:17.667Z,0.90
2022-09-21T12:25:13.811Z,1.02
2022-09-21T12:28:05.205Z,0.98
2022-09-21T12:31:00.576Z,1.05
2022-09-21T12:33:52.139Z,0.90
2022-09-21T12:36:44.441Z,1.33
2022-09-21T12:44:52.858Z,0.98
2022-09-21T12:47:49.949Z,1.17
2022-09-21T12:50:44.339Z,1.00
2022-09-21T12:54:46.234Z,0.90
2022-09-21T12:58:14.668Z,1.08
2022-09-21T13:01:11.877Z,1.10
2022-09-21T13:04:13.820Z,0.85
2022-09-21T13:07:33.865Z,1.02
2022-09-21T13:10:31.476Z,1.17
2022-09-21T13:13:27.877Z,0.82
2022-09-21T13:16:26.436Z,0.80
2022-09-21T13:19:22.894Z,0.80
2022-09-21T13:22:22.374Z,1.48
2022-09-21T13:25:21.838Z,0.90
2022-09-21T13:28:24.153Z,1.42
2022-09-21T13:35:16.213Z,0.80
2022-09-21T13:38:26.518Z,0.90
2022-09-21T13:41:45.444Z,0.98
2022-09-21T13:44:44.087Z,0.80
2022-09-21T13:47:33.291Z,0.95
2022-09-21T13:50:27.817Z,1.08
2022-09-21T13:53:20.981Z,1.30
2022-09-21T13:56:16.935Z,1.23
2022-09-21T13:59:04.878Z,1.38
2022-09-21T14:01:51.925Z,1.20
2022-09-21T14:04:39.372Z,0.75
2022-09-21T14:07:32.059Z,1.00
2022-09-21T14:10:22.431Z,1.00
2022-09-21T14:13:29.222Z,0.90
2022-09-21T14:16:52.105Z,0.90
2022-09-21T14:20:29.537Z,0.80
2022-09-21T14:23:30.250Z,0.90
2022-09-21T14:26:32.889Z,0.80
2022-09-21T14:29:25.191Z,0.90
2022-09-21T14:32:17.446Z,0.82
2022-09-21T14:35:11.294Z,0.85
2022-09-21T14:38:01.702Z,0.75
2022-09-21T14:40:52.967Z,0.80
2022-09-21T14:43:40.223Z,0.80
2022-09-21T14:46:46.530Z,0.75
2022-09-21T14:50:01.773Z,0.90
2022-09-21T14:53:28.060Z,0.90
2022-09-21T14:56:30.182Z,0.75
2022-09-21T14:59:39.361Z,0.70
2022-09-21T15:02:28.671Z,0.70
2022-09-21T15:05:24.152Z,0.90
2022-09-21T15:08:54.189Z,0.90
2022-09-21T15:11:47.801Z,1.20
2022-09-21T15:14:38.441Z,1.20
2022-09-21T15:17:27.224Z,1.10
2022-09-21T15:20:19.600Z,1.10
2022-09-21T15:23:19.823Z,1.40
2022-09-21T15:26:11.347Z,1.67
2022-09-21T15:29:11.286Z,1.40
2022-09-21T15:31:59.670Z,0.68
2022-09-21T15:34:46.747Z,0.90
2022-09-21T15:37:37.333Z,0.90
2022-09-21T15:40:25.759Z,1.02
2022-09-21T15:43:20.945Z,1.20
2022-09-21T15:46:12.415Z,0.90
2022-09-21T15:49:01.683Z,0.80
2022-09-21T15:51:53.581Z,0.95
2022-09-21T15:54:46.018Z,0.90
2022-09-21T15:57:39.148Z,2.60
2022-09-21T16:00:31.167Z,1.10
2022-09-21T16:03:22.160Z,0.90
2022-09-21T16:06:24.619Z,0.80
2022-09-21T16:09:40.419Z,0.85
2022-09-21T16:12:42.458Z,0.88
2022-09-21T16:15:31.886Z,0.75
2022-09-21T16:18:35.695Z,0.95
2022-09-21T16:21:24.839Z,0.80
2022-09-21T16:24:19.012Z,0.90
2022-09-21T16:27:06.474Z,0.70
2022-09-21T16:29:56.400Z,0.90
2022-09-21T16:32:43.751Z,0.70
2022-09-21T16:35:40.846Z,0.90
2022-09-21T16:38:28.017Z,0.82
2022-09-21T16:41:15.718Z,0.90
2022-09-21T16:44:03.939Z,0.80
2022-09-21T16:46:57.352Z,1.00
2022-09-21T16:49:45.076Z,1.00
2022-09-21T16:52:33.443Z,0.95
2022-09-21T16:55:23.458Z,1.25
2022-09-21T16:58:13.879Z,0.95
2022-09-21T17:01:02.760Z,0.80
2022-09-21T17:03:49.833Z,1.20
2022-09-21T17:06:36.779Z,1.13
2022-09-21T17:09:29.812Z,1.20
2022-09-21T17:12:18.874Z,0.93
2022-09-21T17:15:07.843Z,1.10
2022-09-21T17:17:58.140Z,1.13
2022-09-21T17:20:46.202Z,1.00
2022-09-21T17:23:33.172Z,1.35
2022-09-21T17:26:21.537Z,1.20
2022-09-21T17:29:23.186Z,1.00
2022-09-21T17:32:11.762Z,1.30
2022-09-21T17:35:09.836Z,1.30
2022-09-21T17:37:56.940Z,1.08
2022-09-21T17:40:44.418Z,1.30
2022-09-21T17:43:42.006Z,1.30
2022-09-21T17:46:35.779Z,1.13
2022-09-21T17:49:23.216Z,1.50
2022-09-21T17:52:33.908Z,1.80
2022-09-21T17:55:21.482Z,1.50
2022-09-21T17:58:33.594Z,1.70
2022-09-21T18:01:29.110Z,1.80
2022-09-21T18:04:17.357Z,1.70
2022-09-21T18:07:05.131Z,2.00
2022-09-21T18:09:52.850Z,1.90
2022-09-21T18:12:54.027Z,1.80
2022-09-21T18:15:51.034Z,2.15
2022-09-21T18:18:45.505Z,2.13
2022-09-21T18:21:38.440Z,2.30
2022-09-21T18:24:30.964Z,2.55
2022-09-21T18:27:19.969Z,2.80
2022-09-21T18:30:08.438Z,2.67
2022-09-21T18:33:10.564Z,2.78
2022-09-21T18:36:15.362Z,2.47
2022-09-21T18:39:15.199Z,2.70
2022-09-21T18:42:15.603Z,2.97
2022-09-21T18:45:06.533Z,2.88
2022-09-21T18:48:08.210Z,3.30
2022-09-21T18:51:02.357Z,3.90
2022-09-21T18:53:55.760Z,8.50
2022-09-21T18:56:42.929Z,8.40
2022-09-21T18:59:32.069Z,8.57
2022-09-21T19:02:20.649Z,6.00
2022-09-21T19:05:12.519Z,5.83
2022-09-21T19:08:10.188Z,6.27
2022-09-21T19:11:05.246Z,6.50
2022-09-21T19:14:00.847Z,6.55
2022-09-21T19:17:02.794Z,6.43
2022-09-21T19:20:02.870Z,7.77
2022-09-21T19:22:56.503Z,6.63
2022-09-21T19:25:49.777Z,6.20
2022-09-21T19:29:00.004Z,5.50
2022-09-21T19:31:47.611Z,4.87
2022-09-21T19:34:35.222Z,4.87
2022-09-21T19:37:22.717Z,5.43
2022-09-21T19:40:10.910Z,5.47
2022-09-21T19:43:14.091Z,5.70
2022-09-21T19:46:17.758Z,5.90
2022-09-21T19:49:13.457Z,5.47
2022-09-21T19:52:05.659Z,5.13
2022-09-21T19:55:10.789Z,5.27
2022-09-21T19:58:16.026Z,5.43
2022-09-21T20:01:03.565Z,6.63
2022-09-21T20:03:53.667Z,6.07
2022-09-21T20:06:46.350Z,6.77
2022-09-21T20:09:42.050Z,10.83
2022-09-21T20:12:38.421Z,12.07
2022-09-21T20:15:33.624Z,12.10
2022-09-21T20:18:28.151Z,11.57
2022-09-21T20:21:22.198Z,10.00
2022-09-21T20:24:20.648Z,10.57
2022-09-21T20:27:21.298Z,10.17
2022-09-21T20:30:11.195Z,10.13
2022-09-21T20:33:01.935Z,9.50
2022-09-21T20:35:49.971Z,8.87
2022-09-21T20:38:38.358Z,9.20
2022-09-21T20:41:25.515Z,9.37
2022-09-21T20:44:14.365Z,7.47
2022-09-21T20:47:01.401Z,8.60
2022-09-21T20:49:49.226Z,7.70
2022-09-21T20:52:36.462Z,7.30
2022-09-21T20:55:25.179Z,7.53
2022-09-21T20:58:12.926Z,8.07
2022-09-21T21:01:04.419Z,6.97
2022-09-21T21:03:51.765Z,7.20
2022-09-21T21:06:38.883Z,6.43
2022-09-21T21:09:28.221Z,7.70
2022-09-21T21:12:16.616Z,7.17
2022-09-21T21:15:03.993Z,7.10
2022-09-21T21:17:51.349Z,7.13
2022-09-21T21:20:39.390Z,6.67
2022-09-21T21:23:26.303Z,6.93
2022-09-21T21:26:13.491Z,6.17
2022-09-21T21:29:02.371Z,6.53
2022-09-21T21:31:50.967Z,6.90
2022-09-21T21:34:38.286Z,6.70
2022-09-21T21:37:27.010Z,6.13
2022-09-21T21:40:15.030Z,6.50
2022-09-21T21:43:03.788Z,5.73
2022-09-21T21:45:56.722Z,5.30
2022-09-21T21:48:47.290Z,6.10
2022-09-21T21:51:34.858Z,5.33
2022-09-21T21:54:23.376Z,5.30
2022-09-21T21:57:10.939Z,5.33
2022-09-21T21:59:57.975Z,5.07
2022-09-21T22:02:46.836Z,5.70
2022-09-21T22:05:35.566Z,6.37
2022-09-21T22:08:22.594Z,7.83
2022-09-21T22:11:09.639Z,6.63
2022-09-21T22:13:57.796Z,5.90
2022-09-21T22:16:44.897Z,5.17
2022-09-21T22:19:33.172Z,4.60
2022-09-21T22:22:20.530Z,4.63
2022-09-21T22:25:08.658Z,5.03
2022-09-21T22:27:56.396Z,4.60
2022-09-21T22:30:49.809Z,4.43
2022-09-21T22:33:37.383Z,4.13
2022-09-21T22:36:26.965Z,4.00
2022-09-21T22:39:14.163Z,3.90
2022-09-21T22:42:01.543Z,3.87
2022-09-21T22:44:48.590Z,4.77
2022-09-21T22:47:35.849Z,4.23
2022-09-21T22:50:23.309Z,3.97
2022-09-21T22:53:11.952Z,4.07
2022-09-21T22:56:04.693Z,3.80
2022-09-21T22:58:55.125Z,3.60
2022-09-21T23:01:42.147Z,3.90
2022-09-21T23:04:29.467Z,3.43
2022-09-21T23:07:17.095Z,3.87
2022-09-21T23:10:06.509Z,3.57
2022-09-21T23:12:54.539Z,3.57
2022-09-21T23:15:41.773Z,3.53
2022-09-21T23:18:28.423Z,3.63
2022-09-21T23:21:17.441Z,3.40
2022-09-21T23:24:05.331Z,3.83
2022-09-21T23:26:54.153Z,3.40
2022-09-21T23:29:41.410Z,3.90
2022-09-21T23:32:28.590Z,3.60
2022-09-21T23:35:15.856Z,3.90
2022-09-21T23:38:03.145Z,3.57
2022-09-21T23:40:50.565Z,3.80
2022-09-21T23:43:40.970Z,4.63
2022-09-21T23:46:30.224Z,3.40
2022-09-21T23:49:17.153Z,4.17
2022-09-21T23:52:04.349Z,4.60
2022-09-21T23:54:51.328Z,4.27
2022-09-21T23:57:38.623Z,4.53
